Aviation Digital Data Service (ADDS)

Output produced by METARs form (2308 UTC 30 June 2022)
found at http://www.aviationweather.gov/metar/data/
 
METAR text: OMAA 302300Z 08004KT 8000 NSC 30/26 Q0993 NOSIG
Conditions at: OMAA (ABU DHABI INTL , AE) observed 2300 UTC 30 June 2022
Temperature: 30.0°C (86°F)
Dewpoint: 26.0°C (79°F) [RH = 79%]
Pressure (altimeter): 29.32 inches Hg (993.0 mb)
Winds: from the E (80 degrees) at 5 MPH (4 knots; 2.1 m/s)
Visibility: 5 miles ( 8 km)
Ceiling: at least 12,000 feet AGL
Clouds: sky clear below 12,000 feet AGL
Weather: no significant weather observed at this time

METAR text: OMAA 302200Z 06005KT 8000 NSC 31/27 Q0993 NOSIG
Conditions at: OMAA (ABU DHABI INTL , AE) observed 2200 UTC 30 June 2022
Temperature: 31.0°C (88°F)
Dewpoint: 27.0°C (81°F) [RH = 79%]
Pressure (altimeter): 29.32 inches Hg (993.0 mb)
Winds: from the ENE (60 degrees) at 6 MPH (5 knots; 2.6 m/s)
Visibility: 5 miles ( 8 km)
Ceiling: at least 12,000 feet AGL
Clouds: sky clear below 12,000 feet AGL
Weather: no significant weather observed at this time

METAR text: OMAA 302100Z 36006KT CAVOK 32/27 Q0993 NOSIG
Conditions at: OMAA (ABU DHABI INTL , AE) observed 2100 UTC 30 June 2022
Temperature: 32.0°C (90°F)
Dewpoint: 27.0°C (81°F) [RH = 75%]
Pressure (altimeter): 29.32 inches Hg (993.0 mb)
Winds: from the N (360 degrees) at 7 MPH (6 knots; 3.1 m/s)
Visibility: 6 or more miles (10+ km)
Ceiling: ceiling and visibility are OK
Clouds: unknown
Weather: no significant weather observed at this time

METAR text: OMAA 302000Z 00000KT CAVOK 33/23 Q0993 NOSIG
Conditions at: OMAA (ABU DHABI INTL , AE) observed 2000 UTC 30 June 2022
Temperature: 33.0°C (91°F)
Dewpoint: 23.0°C (73°F) [RH = 56%]
Pressure (altimeter): 29.32 inches Hg (993.0 mb)
Winds: calm
Visibility: 6 or more miles (10+ km)
Ceiling: ceiling and visibility are OK
Clouds: unknown
Weather: no significant weather observed at this time

METAR text: OMAA 301900Z VRB02KT CAVOK 33/26 Q0993 NOSIG
Conditions at: OMAA (ABU DHABI INTL , AE) observed 1900 UTC 30 June 2022
Temperature: 33.0°C (91°F)
Dewpoint: 26.0°C (79°F) [RH = 67%]
Pressure (altimeter): 29.32 inches Hg (993.0 mb)
Winds: variable direction winds at 2 MPH (2 knots; 1.0 m/s)
Visibility: 6 or more miles (10+ km)
Ceiling: ceiling and visibility are OK
Clouds: unknown
Weather: no significant weather observed at this time

METAR text: OMAA 301800Z 28005KT CAVOK 34/26 Q0993 NOSIG
Conditions at: OMAA (ABU DHABI INTL , AE) observed 1800 UTC 30 June 2022
Temperature: 34.0°C (93°F)
Dewpoint: 26.0°C (79°F) [RH = 63%]
Pressure (altimeter): 29.32 inches Hg (993.0 mb)
Winds: from the W (280 degrees) at 6 MPH (5 knots; 2.6 m/s)
Visibility: 6 or more miles (10+ km)
Ceiling: ceiling and visibility are OK
Clouds: unknown
Weather: no significant weather observed at this time

METAR text: OMAA 301700Z 31004KT CAVOK 34/24 Q0993 NOSIG
Conditions at: OMAA (ABU DHABI INTL , AE) observed 1700 UTC 30 June 2022
Temperature: 34.0°C (93°F)
Dewpoint: 24.0°C (75°F) [RH = 56%]
Pressure (altimeter): 29.32 inches Hg (993.0 mb)
Winds: from the NW (310 degrees) at 5 MPH (4 knots; 2.1 m/s)
Visibility: 6 or more miles (10+ km)
Ceiling: ceiling and visibility are OK
Clouds: unknown
Weather: no significant weather observed at this time

METAR text: OMAA 301600Z 32006KT CAVOK 35/23 Q0993 NOSIG
Conditions at: OMAA (ABU DHABI INTL , AE) observed 1600 UTC 30 June 2022
Temperature: 35.0°C (95°F)
Dewpoint: 23.0°C (73°F) [RH = 50%]
Pressure (altimeter): 29.32 inches Hg (993.0 mb)
Winds: from the NW (320 degrees) at 7 MPH (6 knots; 3.1 m/s)
Visibility: 6 or more miles (10+ km)
Ceiling: ceiling and visibility are OK
Clouds: unknown
Weather: no significant weather observed at this time

METAR text: OMAA 301500Z 32009KT CAVOK 37/20 Q0992 NOSIG
Conditions at: OMAA (ABU DHABI INTL , AE) observed 1500 UTC 30 June 2022
Temperature: 37.0°C (99°F)
Dewpoint: 20.0°C (68°F) [RH = 37%]
Pressure (altimeter): 29.29 inches Hg (992.0 mb)
Winds: from the NW (320 degrees) at 10 MPH (9 knots; 4.6 m/s)
Visibility: 6 or more miles (10+ km)
Ceiling: ceiling and visibility are OK
Clouds: unknown
Weather: no significant weather observed at this time

METAR text: OMAA 301400Z 31012KT CAVOK 38/18 Q0992 NOSIG
Conditions at: OMAA (ABU DHABI INTL , AE) observed 1400 UTC 30 June 2022
Temperature: 38.0°C (100°F)
Dewpoint: 18.0°C (64°F) [RH = 31%]
Pressure (altimeter): 29.29 inches Hg (992.0 mb)
Winds: from the NW (310 degrees) at 14 MPH (12 knots; 6.2 m/s)
Visibility: 6 or more miles (10+ km)
Ceiling: ceiling and visibility are OK
Clouds: unknown
Weather: no significant weather observed at this time

METAR text: OMAA 301300Z 32015KT CAVOK 39/09 Q0992 NOSIG
Conditions at: OMAA (ABU DHABI INTL , AE) observed 1300 UTC 30 June 2022
Temperature: 39.0°C (102°F)
Dewpoint: 9.0°C (48°F) [RH = 16%]
Pressure (altimeter): 29.29 inches Hg (992.0 mb)
Winds: from the NW (320 degrees) at 17 MPH (15 knots; 7.7 m/s)
Visibility: 6 or more miles (10+ km)
Ceiling: ceiling and visibility are OK
Clouds: unknown
Weather: no significant weather observed at this time

METAR text: OMAA 301200Z 32015KT CAVOK 39/12 Q0992 NOSIG
Conditions at: OMAA (ABU DHABI INTL , AE) observed 1200 UTC 30 June 2022
Temperature: 39.0°C (102°F)
Dewpoint: 12.0°C (54°F) [RH = 20%]
Pressure (altimeter): 29.29 inches Hg (992.0 mb)
Winds: from the NW (320 degrees) at 17 MPH (15 knots; 7.7 m/s)
Visibility: 6 or more miles (10+ km)
Ceiling: ceiling and visibility are OK
Clouds: unknown
Weather: no significant weather observed at this time

METAR text: OMAA 301100Z 30016KT CAVOK 39/21 Q0993 NOSIG
Conditions at: OMAA (ABU DHABI INTL , AE) observed 1100 UTC 30 June 2022
Temperature: 39.0°C (102°F)
Dewpoint: 21.0°C (70°F) [RH = 36%]
Pressure (altimeter): 29.32 inches Hg (993.0 mb)
Winds: from the WNW (300 degrees) at 18 MPH (16 knots; 8.2 m/s)
Visibility: 6 or more miles (10+ km)
Ceiling: ceiling and visibility are OK
Clouds: unknown
Weather: no significant weather observed at this time

METAR text: OMAA 301000Z 30011KT CAVOK 41/19 Q0993 NOSIG
Conditions at: OMAA (ABU DHABI INTL , AE) observed 1000 UTC 30 June 2022
Temperature: 41.0°C (106°F)
Dewpoint: 19.0°C (66°F) [RH = 28%]
Pressure (altimeter): 29.32 inches Hg (993.0 mb)
Winds: from the WNW (300 degrees) at 13 MPH (11 knots; 5.7 m/s)
Visibility: 6 or more miles (10+ km)
Ceiling: ceiling and visibility are OK
Clouds: unknown
Weather: no significant weather observed at this time

METAR text: OMAA 300900Z 29006KT 250V330 CAVOK 42/17 Q0994 TEMPO 4000 DU
Conditions at: OMAA (ABU DHABI INTL , AE) observed 0900 UTC 30 June 2022
Temperature: 42.0°C (108°F)
Dewpoint: 17.0°C (63°F) [RH = 24%]
Pressure (altimeter): 29.35 inches Hg (994.0 mb)
Winds: from the WNW (290 degrees) at 7 MPH (6 knots; 3.1 m/s)
Visibility: 6 or more miles (10+ km)
Ceiling: ceiling and visibility are OK
Clouds: unknown
Weather: no significant weather observed at this time

METAR text: OMAA 300800Z VRB05KT 8000 NSC 41/19 Q0995 BECMG 30012KT TEMPO 4000 DU
Conditions at: OMAA (ABU DHABI INTL , AE) observed 0800 UTC 30 June 2022
Temperature: 41.0°C (106°F)
Dewpoint: 19.0°C (66°F) [RH = 28%]
Pressure (altimeter): 29.38 inches Hg (995.0 mb)
Winds: variable direction winds at 6 MPH (5 knots; 2.6 m/s)
Visibility: 5 miles ( 8 km)
Ceiling: at least 12,000 feet AGL
Clouds: sky clear below 12,000 feet AGL
Weather: no significant weather observed at this time

METAR text: OMAA 300700Z 21007KT 160V250 8000 NSC 39/22 Q0995 NOSIG
Conditions at: OMAA (ABU DHABI INTL , AE) observed 0700 UTC 30 June 2022
Temperature: 39.0°C (102°F)
Dewpoint: 22.0°C (72°F) [RH = 38%]
Pressure (altimeter): 29.38 inches Hg (995.0 mb)
Winds: from the SSW (210 degrees) at 8 MPH (7 knots; 3.6 m/s)
Visibility: 5 miles ( 8 km)
Ceiling: at least 12,000 feet AGL
Clouds: sky clear below 12,000 feet AGL
Weather: no significant weather observed at this time

METAR text: OMAA 300600Z 19006KT 150V240 7000 NSC 37/22 Q0995 NOSIG
Conditions at: OMAA (ABU DHABI INTL , AE) observed 0600 UTC 30 June 2022
Temperature: 37.0°C (99°F)
Dewpoint: 22.0°C (72°F) [RH = 42%]
Pressure (altimeter): 29.38 inches Hg (995.0 mb)
Winds: from the S (190 degrees) at 7 MPH (6 knots; 3.1 m/s)
Visibility: 4 miles ( 7 km)
Ceiling: at least 12,000 feet AGL
Clouds: sky clear below 12,000 feet AGL
Weather: no significant weather observed at this time

METAR text: OMAA 300500Z 20006KT 170V240 7000 NSC 35/24 Q0995 TEMPO 4000 DU
Conditions at: OMAA (ABU DHABI INTL , AE) observed 0500 UTC 30 June 2022
Temperature: 35.0°C (95°F)
Dewpoint: 24.0°C (75°F) [RH = 53%]
Pressure (altimeter): 29.38 inches Hg (995.0 mb)
Winds: from the SSW (200 degrees) at 7 MPH (6 knots; 3.1 m/s)
Visibility: 4 miles ( 7 km)
Ceiling: at least 12,000 feet AGL
Clouds: sky clear below 12,000 feet AGL
Weather: no significant weather observed at this time

METAR text: OMAA 300400Z 20005KT 140V240 6000 NSC 32/25 Q0995 TEMPO 4000 DU
Conditions at: OMAA (ABU DHABI INTL , AE) observed 0400 UTC 30 June 2022
Temperature: 32.0°C (90°F)
Dewpoint: 25.0°C (77°F) [RH = 67%]
Pressure (altimeter): 29.38 inches Hg (995.0 mb)
Winds: from the SSW (200 degrees) at 6 MPH (5 knots; 2.6 m/s)
Visibility: 4 miles ( 6 km)
Ceiling: at least 12,000 feet AGL
Clouds: sky clear below 12,000 feet AGL
Weather: no significant weather observed at this time

METAR text: OMAA 300300Z 20005KT 6000 NSC 31/25 Q0994 NOSIG
Conditions at: OMAA (ABU DHABI INTL , AE) observed 0300 UTC 30 June 2022
Temperature: 31.0°C (88°F)
Dewpoint: 25.0°C (77°F) [RH = 71%]
Pressure (altimeter): 29.35 inches Hg (994.0 mb)
Winds: from the SSW (200 degrees) at 6 MPH (5 knots; 2.6 m/s)
Visibility: 4 miles ( 6 km)
Ceiling: at least 12,000 feet AGL
Clouds: sky clear below 12,000 feet AGL
Weather: no significant weather observed at this time

METAR text: OMAA 300200Z 17006KT 6000 NSC 31/25 Q0994 TEMPO 4000 HZ
Conditions at: OMAA (ABU DHABI INTL , AE) observed 0200 UTC 30 June 2022
Temperature: 31.0°C (88°F)
Dewpoint: 25.0°C (77°F) [RH = 71%]
Pressure (altimeter): 29.35 inches Hg (994.0 mb)
Winds: from the S (170 degrees) at 7 MPH (6 knots; 3.1 m/s)
Visibility: 4 miles ( 6 km)
Ceiling: at least 12,000 feet AGL
Clouds: sky clear below 12,000 feet AGL
Weather: no significant weather observed at this time

METAR text: OMAA 300100Z 17004KT 8000 NSC 31/25 Q0994 NOSIG
Conditions at: OMAA (ABU DHABI INTL , AE) observed 0100 UTC 30 June 2022
Temperature: 31.0°C (88°F)
Dewpoint: 25.0°C (77°F) [RH = 71%]
Pressure (altimeter): 29.35 inches Hg (994.0 mb)
Winds: from the S (170 degrees) at 5 MPH (4 knots; 2.1 m/s)
Visibility: 5 miles ( 8 km)
Ceiling: at least 12,000 feet AGL
Clouds: sky clear below 12,000 feet AGL
Weather: no significant weather observed at this time

METAR text: OMAA 300000Z 07004KT 030V120 8000 NSC 31/25 Q0994 BECMG 14005KT
Conditions at: OMAA (ABU DHABI INTL , AE) observed 0000 UTC 30 June 2022
Temperature: 31.0°C (88°F)
Dewpoint: 25.0°C (77°F) [RH = 71%]
Pressure (altimeter): 29.35 inches Hg (994.0 mb)
Winds: from the ENE (70 degrees) at 5 MPH (4 knots; 2.1 m/s)
Visibility: 5 miles ( 8 km)
Ceiling: at least 12,000 feet AGL
Clouds: sky clear below 12,000 feet AGL
Weather: no significant weather observed at this time

METAR text: OMAA 292300Z VRB04KT 8000 NSC 32/26 Q0994 NOSIG
Conditions at: OMAA (ABU DHABI INTL , AE) observed 2300 UTC 29 June 2022
Temperature: 32.0°C (90°F)
Dewpoint: 26.0°C (79°F) [RH = 71%]
Pressure (altimeter): 29.35 inches Hg (994.0 mb)
Winds: variable direction winds at 5 MPH (4 knots; 2.1 m/s)
Visibility: 5 miles ( 8 km)
Ceiling: at least 12,000 feet AGL
Clouds: sky clear below 12,000 feet AGL
Weather: no significant weather observed at this time

METAR text: OMAA 292200Z 34004KT 300V040 8000 NSC 32/25 Q0994 NOSIG
Conditions at: OMAA (ABU DHABI INTL , AE) observed 2200 UTC 29 June 2022
Temperature: 32.0°C (90°F)
Dewpoint: 25.0°C (77°F) [RH = 67%]
Pressure (altimeter): 29.35 inches Hg (994.0 mb)
Winds: from the NNW (340 degrees) at 5 MPH (4 knots; 2.1 m/s)
Visibility: 5 miles ( 8 km)
Ceiling: at least 12,000 feet AGL
Clouds: sky clear below 12,000 feet AGL
Weather: no significant weather observed at this time

METAR text: OMAA 292100Z 32002KT 8000 NSC 32/25 Q0994 NOSIG
Conditions at: OMAA (ABU DHABI INTL , AE) observed 2100 UTC 29 June 2022
Temperature: 32.0°C (90°F)
Dewpoint: 25.0°C (77°F) [RH = 67%]
Pressure (altimeter): 29.35 inches Hg (994.0 mb)
Winds: from the NW (320 degrees) at 2 MPH (2 knots; 1.0 m/s)
Visibility: 5 miles ( 8 km)
Ceiling: at least 12,000 feet AGL
Clouds: sky clear below 12,000 feet AGL
Weather: no significant weather observed at this time

METAR text: OMAA 292000Z 33003KT 310V030 8000 NSC 32/25 Q0994 NOSIG
Conditions at: OMAA (ABU DHABI INTL , AE) observed 2000 UTC 29 June 2022
Temperature: 32.0°C (90°F)
Dewpoint: 25.0°C (77°F) [RH = 67%]
Pressure (altimeter): 29.35 inches Hg (994.0 mb)
Winds: from the NNW (330 degrees) at 3 MPH (3 knots; 1.5 m/s)
Visibility: 5 miles ( 8 km)
Ceiling: at least 12,000 feet AGL
Clouds: sky clear below 12,000 feet AGL
Weather: no significant weather observed at this time

METAR text: OMAA 291900Z VRB02KT 8000 NSC 33/25 Q0994 NOSIG
Conditions at: OMAA (ABU DHABI INTL , AE) observed 1900 UTC 29 June 2022
Temperature: 33.0°C (91°F)
Dewpoint: 25.0°C (77°F) [RH = 63%]
Pressure (altimeter): 29.35 inches Hg (994.0 mb)
Winds: variable direction winds at 2 MPH (2 knots; 1.0 m/s)
Visibility: 5 miles ( 8 km)
Ceiling: at least 12,000 feet AGL
Clouds: sky clear below 12,000 feet AGL
Weather: no significant weather observed at this time

METAR text: OMAA 291800Z 32005KT 8000 NSC 33/25 Q0995 NOSIG
Conditions at: OMAA (ABU DHABI INTL , AE) observed 1800 UTC 29 June 2022
Temperature: 33.0°C (91°F)
Dewpoint: 25.0°C (77°F) [RH = 63%]
Pressure (altimeter): 29.38 inches Hg (995.0 mb)
Winds: from the NW (320 degrees) at 6 MPH (5 knots; 2.6 m/s)
Visibility: 5 miles ( 8 km)
Ceiling: at least 12,000 feet AGL
Clouds: sky clear below 12,000 feet AGL
Weather: no significant weather observed at this time

METAR text: OMAA 291700Z 32009KT 8000 NSC 33/26 Q0994 NOSIG
Conditions at: OMAA (ABU DHABI INTL , AE) observed 1700 UTC 29 June 2022
Temperature: 33.0°C (91°F)
Dewpoint: 26.0°C (79°F) [RH = 67%]
Pressure (altimeter): 29.35 inches Hg (994.0 mb)
Winds: from the NW (320 degrees) at 10 MPH (9 knots; 4.6 m/s)
Visibility: 5 miles ( 8 km)
Ceiling: at least 12,000 feet AGL
Clouds: sky clear below 12,000 feet AGL
Weather: no significant weather observed at this time

METAR text: OMAA 291600Z 32011KT 8000 NSC 33/27 Q0994 NOSIG
Conditions at: OMAA (ABU DHABI INTL , AE) observed 1600 UTC 29 June 2022
Temperature: 33.0°C (91°F)
Dewpoint: 27.0°C (81°F) [RH = 71%]
Pressure (altimeter): 29.35 inches Hg (994.0 mb)
Winds: from the NW (320 degrees) at 13 MPH (11 knots; 5.7 m/s)
Visibility: 5 miles ( 8 km)
Ceiling: at least 12,000 feet AGL
Clouds: sky clear below 12,000 feet AGL
Weather: no significant weather observed at this time

METAR text: OMAA 291500Z 32013KT 6000 NSC 34/27 Q0994 NOSIG
Conditions at: OMAA (ABU DHABI INTL , AE) observed 1500 UTC 29 June 2022
Temperature: 34.0°C (93°F)
Dewpoint: 27.0°C (81°F) [RH = 67%]
Pressure (altimeter): 29.35 inches Hg (994.0 mb)
Winds: from the NW (320 degrees) at 15 MPH (13 knots; 6.7 m/s)
Visibility: 4 miles ( 6 km)
Ceiling: at least 12,000 feet AGL
Clouds: sky clear below 12,000 feet AGL
Weather: no significant weather observed at this time

METAR text: OMAA 291400Z 32015KT 6000 NSC 34/27 Q0993 NOSIG
Conditions at: OMAA (ABU DHABI INTL , AE) observed 1400 UTC 29 June 2022
Temperature: 34.0°C (93°F)
Dewpoint: 27.0°C (81°F) [RH = 67%]
Pressure (altimeter): 29.32 inches Hg (993.0 mb)
Winds: from the NW (320 degrees) at 17 MPH (15 knots; 7.7 m/s)
Visibility: 4 miles ( 6 km)
Ceiling: at least 12,000 feet AGL
Clouds: sky clear below 12,000 feet AGL
Weather: no significant weather observed at this time

METAR text: OMAA 291300Z 31015KT 6000 NSC 36/27 Q0993 NOSIG
Conditions at: OMAA (ABU DHABI INTL , AE) observed 1300 UTC 29 June 2022
Temperature: 36.0°C (97°F)
Dewpoint: 27.0°C (81°F) [RH = 60%]
Pressure (altimeter): 29.32 inches Hg (993.0 mb)
Winds: from the NW (310 degrees) at 17 MPH (15 knots; 7.7 m/s)
Visibility: 4 miles ( 6 km)
Ceiling: at least 12,000 feet AGL
Clouds: sky clear below 12,000 feet AGL
Weather: no significant weather observed at this time

METAR text: OMAA 291200Z 33014KT 6000 NSC 37/27 Q0994 NOSIG
Conditions at: OMAA (ABU DHABI INTL , AE) observed 1200 UTC 29 June 2022
Temperature: 37.0°C (99°F)
Dewpoint: 27.0°C (81°F) [RH = 57%]
Pressure (altimeter): 29.35 inches Hg (994.0 mb)
Winds: from the NNW (330 degrees) at 16 MPH (14 knots; 7.2 m/s)
Visibility: 4 miles ( 6 km)
Ceiling: at least 12,000 feet AGL
Clouds: sky clear below 12,000 feet AGL
Weather: no significant weather observed at this time

Forecast for: OMAA (ABU DHABI INTL , AE)
Text: TAF OMAA 302300Z 0100/0206 19005KT 8000 NSC
Forecast period: 0000 to 0800 UTC 01 July 2022
Forecast type: FROM: standard forecast or significant change
Winds: from the S (190 degrees) at 6 MPH (5 knots; 2.6 m/s)
Visibility: 5 miles (8 km)
Ceiling: unknown
Clouds: missing
Weather: no significant weather forecast for this period
Text: PROB30 0101/0104 4000 HZ
Forecast period: 0100 to 0400 UTC 01 July 2022
Forecast type: PROBABLE: 30 percent likelihood of the following during this time
Visibility: 2.49 miles (4.01 km)
Ceiling: unknown
Clouds: missing
Weather: HZ  (haze)
Text: BECMG 0108/0110 32011KT
Forecast period: 0800 to 1600 UTC 01 July 2022
Forecast type: BECOMING: Conditions expected to become as follows by 1000 UTC 01 July 2022
Winds: from the NW (320 degrees) at 13 MPH (11 knots; 5.7 m/s)
Visibility: 5 miles (8 km)
Ceiling: unknown
Clouds: missing
Weather: no significant weather forecast for this period
Text: BECMG 0116/0118 02005KT
Forecast period: 1600 UTC 01 July 2022 to 0600 UTC 02 July 2022
Forecast type: BECOMING: Conditions expected to become as follows by 1800 UTC 01 July 2022
Winds: from the NNE (20 degrees) at 6 MPH (5 knots; 2.6 m/s)
Visibility: 5 miles (8 km)
Ceiling: unknown
Clouds: missing
Weather: no significant weather forecast for this period
Text: PROB30 0123/0205 3000 BR
Forecast period: 2300 UTC 01 July 2022 to 0500 UTC 02 July 2022
Forecast type: PROBABLE: 30 percent likelihood of the following during this time
Visibility: 1.86 miles (2.99 km)
Ceiling: unknown
Clouds: missing
Weather: BR  (mist)